Time;durP1;ratioP1;P1;durP2;ratioP2;P2;SDS_P1;SDS_P2;PMS_P1;PMS_P2;Temp;Humidity;BMP_temperature;BMP_pressure;BME280_temperature;BME280_humidity;BME280_pressure;Samples;Min_cycle;Max_cycle;Signal;HPM_P1;HPM_P2
2023/03/14 00:02:23;;;;;;;0.80;0.80;;;;;;;7.19;63.00;100420.72;5091356;28;20330;-70
2023/03/14 00:04:49;;;;;;;0.80;0.80;;;;;;;7.26;62.57;100438.16;5091726;28;20205;-70
2023/03/14 00:07:16;;;;;;;0.90;0.90;;;;;;;7.31;62.79;100431.44;5091486;28;20202;-69
2023/03/14 00:09:43;;;;;;;0.73;0.73;;;;;;;7.09;62.61;100398.06;5038878;28;20206;-69
2023/03/14 00:12:10;;;;;;;0.80;0.80;;;;;;;7.22;62.71;100413.09;5056971;28;20576;-69
2023/03/14 00:14:36;;;;;;;2.83;1.90;;;;;;;7.21;62.82;100408.75;5091661;28;20190;-70
2023/03/14 00:17:03;;;;;;;0.90;0.90;;;;;;;7.24;64.51;100423.47;5091059;28;20233;-69
2023/03/14 00:19:31;;;;;;;0.80;0.80;;;;;;;7.20;63.68;100419.91;5091610;28;20198;-70
2023/03/14 00:21:58;;;;;;;0.90;0.90;;;;;;;6.98;64.15;100400.25;5091086;28;20198;-70
2023/03/14 00:24:25;;;;;;;0.80;0.80;;;;;;;7.14;63.78;100417.09;5090964;28;20198;-69
2023/03/14 00:26:52;;;;;;;0.90;0.90;;;;;;;7.12;64.36;100393.00;5035366;28;20191;-70
2023/03/14 00:29:19;;;;;;;0.70;0.70;;;;;;;7.13;63.83;100399.03;5079440;28;20198;-70
2023/03/14 00:31:45;;;;;;;0.80;0.80;;;;;;;7.05;64.41;100395.31;5090782;28;20190;-69
2023/03/14 00:34:12;;;;;;;1.00;1.00;;;;;;;6.95;64.89;100374.38;5091117;28;20673;-70
2023/03/14 00:36:40;;;;;;;1.00;1.00;;;;;;;7.08;64.84;100390.25;5090600;28;20256;-71
2023/03/14 00:39:07;;;;;;;0.80;0.80;;;;;;;6.97;65.68;100377.00;5089325;28;20691;-69
2023/03/14 00:41:34;;;;;;;0.83;0.83;;;;;;;6.38;66.90;100295.09;5090665;28;21252;-68
2023/03/14 00:44:01;;;;;;;1.10;1.10;;;;;;;6.83;67.49;100383.38;5091010;28;20203;-69
2023/03/14 00:46:27;;;;;;;0.70;0.70;;;;;;;6.52;68.08;100336.78;5090866;28;20659;-70
2023/03/14 00:48:54;;;;;;;1.23;1.13;;;;;;;6.77;68.24;100380.59;5090918;28;20277;-69
2023/03/14 00:51:21;;;;;;;0.70;0.70;;;;;;;6.76;68.47;100386.56;5090802;28;20190;-69
2023/03/14 00:53:49;;;;;;;1.70;1.70;;;;;;;6.84;68.10;100380.88;5090027;28;20194;-69
2023/03/14 00:56:16;;;;;;;1.00;1.00;;;;;;;6.78;68.16;100380.63;5090505;28;20232;-70
2023/03/14 00:58:43;;;;;;;0.80;0.80;;;;;;;6.58;67.51;100344.72;5090358;28;20229;-69
2023/03/14 01:01:11;;;;;;;0.90;0.90;;;;;;;6.27;66.70;100276.69;5090667;28;20198;-69
2023/03/14 01:03:38;;;;;;;0.80;0.80;;;;;;;6.70;65.33;100345.16;5090568;28;20198;-69
2023/03/14 01:06:11;;;;;;;1.00;1.00;;;;;;;6.86;65.30;100368.03;5090637;28;20190;-70
2023/03/14 01:08:37;;;;;;;0.80;0.80;;;;;;;6.94;65.38;100364.00;5070961;28;20589;-69
2023/03/14 01:11:10;;;;;;;0.70;0.70;;;;;;;7.00;68.09;100364.22;5086203;28;20202;-70
2023/03/14 01:13:38;;;;;;;0.80;0.80;;;;;;;6.35;70.01;100280.38;5089486;28;20190;-70
2023/03/14 01:16:06;;;;;;;1.97;1.87;;;;;;;6.96;72.57;100380.41;5090323;28;20229;-69
2023/03/14 01:18:34;;;;;;;0.90;0.90;;;;;;;6.75;72.82;100341.88;5090523;28;20248;-69
2023/03/14 01:21:01;;;;;;;0.90;0.90;;;;;;;6.88;74.44;100381.84;5090419;28;20202;-70
2023/03/14 01:23:28;;;;;;;0.80;0.80;;;;;;;6.73;75.14;100365.84;5090657;28;20572;-70
2023/03/14 01:25:55;;;;;;;0.90;0.90;;;;;;;6.71;75.64;100382.94;5090360;28;20202;-70
2023/03/14 01:28:23;;;;;;;0.80;0.80;;;;;;;6.75;75.25;100384.81;5090340;28;20205;-70
2023/03/14 01:30:50;;;;;;;0.90;0.90;;;;;;;6.51;75.23;100358.19;5092576;28;20212;-70
2023/03/14 01:33:17;;;;;;;0.90;0.90;;;;;;;6.44;75.82;100363.13;5093842;28;20205;-70
2023/03/14 01:35:43;;;;;;;0.80;0.80;;;;;;;6.52;75.64;100371.13;5093967;28;20217;-69
2023/03/14 01:38:10;;;;;;;1.00;1.00;;;;;;;6.37;76.18;100350.88;5092097;28;20210;-69
2023/03/14 01:40:43;;;;;;;1.00;1.00;;;;;;;6.47;77.40;100362.34;5093706;28;20208;-69
2023/03/14 01:43:15;;;;;;;0.93;0.93;;;;;;;6.27;77.93;100351.34;5041430;28;20335;-70
2023/03/14 01:46:17;;;;;;;1.00;1.00;;;;;;;6.28;79.41;100357.34;5093378;28;20198;-70
2023/03/14 01:48:48;;;;;;;0.70;0.70;;;;;;;5.80;81.58;100307.50;5094444;28;20201;-70
2023/03/14 01:51:19;;;;;;;0.80;0.80;;;;;;;5.97;82.58;100366.53;5094122;28;20205;-70
2023/03/14 01:53:46;;;;;;;0.90;0.90;;;;;;;5.95;83.44;100368.19;5093808;28;20190;-70
2023/03/14 01:56:16;;;;;;;0.70;0.70;;;;;;;6.00;84.07;100368.34;5093572;28;20618;-70
2023/03/14 01:58:46;;;;;;;0.80;0.80;;;;;;;5.97;84.79;100384.56;5093470;28;20236;-70
2023/03/14 02:01:17;;;;;;;0.80;0.80;;;;;;;5.89;85.75;100380.81;5075108;28;20206;-70
2023/03/14 02:03:49;;;;;;;1.30;1.30;;;;;;;5.77;87.30;100379.44;5079642;28;20276;-70
2023/03/14 02:06:20;;;;;;;0.90;0.90;;;;;;;5.63;88.12;100365.16;5058350;28;20280;-70
2023/03/14 02:08:48;;;;;;;0.80;0.80;;;;;;;5.55;88.82;100363.97;5093998;28;20198;-70
2023/03/14 02:11:15;;;;;;;4.43;2.70;;;;;;;5.52;89.26;100359.59;5093340;28;20194;-70
2023/03/14 02:13:43;;;;;;;1.00;1.00;;;;;;;5.57;88.97;100352.91;5093940;28;20205;-70
2023/03/14 02:16:10;;;;;;;0.90;0.90;;;;;;;5.54;87.77;100357.06;5093667;28;20218;-70
2023/03/14 02:18:40;;;;;;;0.80;0.80;;;;;;;5.38;88.30;100348.78;5093695;28;20205;-69
2023/03/14 02:21:15;;;;;;;0.87;0.87;;;;;;;5.14;88.83;100322.06;5093421;28;20329;-69
2023/03/14 02:23:50;;;;;;;1.00;1.00;;;;;;;5.35;88.49;100361.47;5073637;28;20210;-69
2023/03/14 02:26:23;;;;;;;0.90;0.90;;;;;;;5.31;88.85;100364.78;5077569;28;20202;-69
2023/03/14 02:28:53;;;;;;;1.23;1.23;;;;;;;5.29;87.92;100363.81;5093487;28;20209;-69
2023/03/14 02:31:21;;;;;;;0.80;0.80;;;;;;;5.28;89.24;100367.19;5092942;28;20203;-68
2023/03/14 02:33:49;;;;;;;1.00;1.00;;;;;;;5.25;88.34;100363.63;5093310;28;20244;-70
2023/03/14 02:36:17;;;;;;;1.10;1.10;;;;;;;5.24;91.77;100365.34;5093303;28;20230;-70
2023/03/14 02:38:48;;;;;;;0.93;0.93;;;;;;;5.25;93.25;100354.22;5089219;28;20194;-70
2023/03/14 02:41:16;;;;;;;0.90;0.90;;;;;;;5.03;96.67;100333.59;5082376;28;20202;-70
2023/03/14 02:43:43;;;;;;;0.90;0.90;;;;;;;5.19;98.55;100363.38;5093325;28;20190;-70
2023/03/14 02:46:13;;;;;;;1.00;1.00;;;;;;;5.19;99.54;100365.94;5093082;28;20197;-70
2023/03/14 02:48:42;;;;;;;0.90;0.90;;;;;;;5.15;99.01;100367.53;5058080;28;21314;-71
2023/03/14 02:51:09;;;;;;;0.80;0.80;;;;;;;5.00;99.93;100359.16;5092365;28;20205;-70
2023/03/14 02:53:38;;;;;;;0.80;0.80;;;;;;;4.98;99.38;100347.97;5092966;28;20220;-70
2023/03/14 02:56:05;;;;;;;0.80;0.80;;;;;;;4.86;98.90;100332.03;5092531;28;20212;-70
2023/03/14 02:58:32;;;;;;;0.70;0.70;;;;;;;4.89;98.57;100345.88;5093049;28;20241;-70
2023/03/14 03:00:59;;;;;;;0.80;0.80;;;;;;;4.72;96.00;100330.59;5053797;28;20198;-70
2023/03/14 03:03:27;;;;;;;1.00;1.00;;;;;;;4.79;94.74;100332.59;5045174;28;20199;-70
2023/03/14 03:05:56;;;;;;;0.83;0.83;;;;;;;4.88;94.75;100358.69;5092906;28;20201;-70
2023/03/14 03:08:25;;;;;;;0.80;0.80;;;;;;;4.70;95.40;100338.25;5092537;28;20210;-69
2023/03/14 03:10:53;;;;;;;1.00;1.00;;;;;;;4.84;96.90;100359.38;5092124;28;20259;-71
2023/03/14 03:13:20;;;;;;;1.00;1.00;;;;;;;4.80;96.85;100345.50;5057004;28;20595;-69
2023/03/14 03:15:47;;;;;;;1.00;1.00;;;;;;;4.78;96.96;100336.00;5092238;28;20280;-70
2023/03/14 03:18:14;;;;;;;1.17;1.17;;;;;;;4.98;94.75;100356.56;5092037;28;20226;-70
2023/03/14 03:20:42;;;;;;;0.97;0.97;;;;;;;4.94;94.65;100341.81;5091970;28;20665;-70
2023/03/14 03:23:09;;;;;;;0.83;0.83;;;;;;;4.89;96.00;100343.31;5092448;28;20209;-70
2023/03/14 03:25:35;;;;;;;0.83;0.83;;;;;;;4.79;97.80;100337.72;5091547;28;20538;-70
2023/03/14 03:28:07;;;;;;;1.00;1.00;;;;;;;4.72;99.22;100325.44;5091895;28;20198;-70
2023/03/14 03:30:34;;;;;;;0.90;0.90;;;;;;;4.73;99.72;100320.38;5057794;28;20580;-69
2023/03/14 03:33:01;;;;;;;1.40;1.37;;;;;;;4.66;100.00;100308.09;5091075;28;20201;-69
2023/03/14 03:35:28;;;;;;;1.10;1.10;;;;;;;4.61;99.84;100301.88;5091562;28;20209;-70
2023/03/14 03:37:56;;;;;;;0.90;0.90;;;;;;;4.68;95.82;100288.50;5091774;28;20250;-70
2023/03/14 03:40:23;;;;;;;0.80;0.80;;;;;;;4.72;93.46;100299.75;5091748;28;20225;-70
2023/03/14 03:42:50;;;;;;;1.10;1.10;;;;;;;4.75;91.36;100284.47;5086700;28;20222;-70
2023/03/14 03:45:17;;;;;;;1.30;1.30;;;;;;;4.85;87.97;100274.63;5082425;28;20210;-71
2023/03/14 03:47:43;;;;;;;0.90;0.90;;;;;;;4.98;84.83;100265.75;5083680;28;20673;-70
2023/03/14 03:50:11;;;;;;;0.93;0.93;;;;;;;5.32;80.99;100268.81;5083761;28;20216;-69
2023/03/14 03:52:38;;;;;;;0.90;0.90;;;;;;;5.40;79.40;100275.13;5086832;28;20194;-69
2023/03/14 03:55:06;;;;;;;0.90;0.90;;;;;;;5.43;77.85;100243.50;5086582;28;20213;-69
2023/03/14 03:57:33;;;;;;;0.80;0.80;;;;;;;5.68;74.68;100271.03;5091162;28;20598;-69
2023/03/14 04:00:00;;;;;;;0.93;0.93;;;;;;;5.59;74.41;100244.97;5091215;28;20636;-69
2023/03/14 04:02:27;;;;;;;0.80;0.80;;;;;;;5.80;73.23;100282.66;5090680;28;20206;-69
2023/03/14 04:04:53;;;;;;;1.00;1.00;;;;;;;5.49;72.78;100211.19;5091456;28;20198;-70
2023/03/14 04:07:20;;;;;;;0.70;0.70;;;;;;;5.87;72.80;100270.94;5083033;28;20202;-70
2023/03/14 04:09:47;;;;;;;0.70;0.70;;;;;;;5.88;71.33;100260.72;5090951;28;20198;-69
2023/03/14 04:12:15;;;;;;;0.80;0.80;;;;;;;5.91;71.41;100250.53;5091027;28;20207;-69
2023/03/14 04:14:42;;;;;;;0.70;0.70;;;;;;;5.95;70.57;100277.25;5091500;28;20193;-68
2023/03/14 04:17:09;;;;;;;0.70;0.70;;;;;;;5.83;77.27;100277.63;5091101;28;20222;-68
2023/03/14 04:19:35;;;;;;;0.80;0.80;;;;;;;5.70;83.32;100282.25;5090805;28;20205;-69
2023/03/14 04:22:02;;;;;;;1.00;1.00;;;;;;;5.63;95.05;100290.56;5038940;28;20648;-70
2023/03/14 04:24:29;;;;;;;0.80;0.80;;;;;;;5.37;100.00;100292.13;5053904;28;20198;-69
2023/03/14 04:26:56;;;;;;;0.67;0.67;;;;;;;5.21;100.00;100298.34;5090688;28;20342;-70
2023/03/14 04:29:24;;;;;;;0.90;0.90;;;;;;;5.17;100.00;100299.09;5087656;28;20697;-69
2023/03/14 04:31:51;;;;;;;0.90;0.90;;;;;;;5.07;100.00;100299.50;5084384;28;20654;-70
2023/03/14 04:34:18;;;;;;;1.00;1.00;;;;;;;4.79;100.00;100297.53;5088452;28;20202;-69
2023/03/14 04:36:44;;;;;;;0.93;0.93;;;;;;;4.54;100.00;100263.06;5075221;28;20248;-70
2023/03/14 04:39:11;;;;;;;1.10;1.10;;;;;;;4.68;100.00;100285.03;5083732;28;20209;-72
2023/03/14 04:41:38;;;;;;;0.80;0.80;;;;;;;4.32;100.00;100277.53;5090058;28;20206;-72
2023/03/14 04:44:05;;;;;;;0.83;0.83;;;;;;;4.47;100.00;100270.50;5090970;28;20202;-69
2023/03/14 04:46:33;;;;;;;0.70;0.70;;;;;;;4.50;100.00;100268.06;5091060;28;20620;-69
2023/03/14 04:49:00;;;;;;;0.80;0.80;;;;;;;4.48;100.00;100279.97;5090751;28;20194;-70
2023/03/14 04:51:27;;;;;;;0.80;0.80;;;;;;;4.59;100.00;100287.25;5090806;28;20700;-70
2023/03/14 04:53:55;;;;;;;0.90;0.90;;;;;;;4.69;100.00;100287.69;5038600;28;20230;-68
2023/03/14 04:56:22;;;;;;;0.90;0.90;;;;;;;4.70;100.00;100286.00;5076591;28;20218;-69
2023/03/14 04:58:49;;;;;;;0.90;0.90;;;;;;;4.50;100.00;100250.09;5090562;28;20229;-69
2023/03/14 05:01:15;;;;;;;1.00;1.00;;;;;;;4.68;100.00;100287.59;5090757;28;20190;-69
2023/03/14 05:03:44;;;;;;;0.90;0.90;;;;;;;4.77;100.00;100278.63;5074263;28;20214;-69
2023/03/14 05:06:10;;;;;;;0.90;0.90;;;;;;;4.70;100.00;100275.72;5093843;28;20193;-69
2023/03/14 05:08:37;;;;;;;1.10;1.10;;;;;;;4.67;100.00;100265.34;5094837;28;20206;-69
2023/03/14 05:11:04;;;;;;;1.00;1.00;;;;;;;4.67;100.00;100266.22;5094759;28;20645;-70
2023/03/14 05:13:31;;;;;;;1.03;1.03;;;;;;;4.69;100.00;100262.00;5059158;28;20257;-69
2023/03/14 05:16:05;;;;;;;0.70;0.70;;;;;;;4.82;100.00;100255.66;5071805;28;20205;-70
2023/03/14 05:18:31;;;;;;;0.73;0.73;;;;;;;4.82;100.00;100255.66;5089384;28;20217;-70
2023/03/14 05:21:00;;;;;;;1.00;1.00;;;;;;;4.90;100.00;100257.72;5095123;28;20202;-71
2023/03/14 05:23:27;;;;;;;1.10;1.10;;;;;;;4.93;100.00;100264.69;5094195;28;20194;-71
2023/03/14 05:25:54;;;;;;;0.80;0.80;;;;;;;5.00;100.00;100257.28;5094221;28;20198;-71
2023/03/14 05:28:21;;;;;;;0.83;0.83;;;;;;;4.92;100.00;100248.38;5085786;28;20225;-71
2023/03/14 05:30:47;;;;;;;1.00;1.00;;;;;;;5.06;100.00;100264.38;5090195;28;20202;-70
2023/03/14 05:33:14;;;;;;;0.70;0.70;;;;;;;5.20;100.00;100265.78;5087444;28;20542;-70
2023/03/14 05:35:42;;;;;;;0.90;0.90;;;;;;;5.26;100.00;100273.72;5090162;28;20209;-70
2023/03/14 05:38:10;;;;;;;0.97;0.97;;;;;;;5.28;100.00;100271.22;5086917;28;20255;-71
2023/03/14 05:40:37;;;;;;;0.80;0.80;;;;;;;5.29;100.00;100265.25;5093595;28;20653;-71
2023/03/14 05:43:04;;;;;;;0.93;0.93;;;;;;;5.36;100.00;100273.25;5093791;28;20225;-70
2023/03/14 05:45:31;;;;;;;1.00;1.00;;;;;;;5.44;100.00;100266.72;5079192;28;20572;-71
2023/03/14 05:47:57;;;;;;;0.90;0.90;;;;;;;5.56;100.00;100265.44;5093285;28;20214;-70
2023/03/14 05:50:24;;;;;;;0.80;0.80;;;;;;;5.57;100.00;100267.16;5093487;28;20194;-70
2023/03/14 05:52:51;;;;;;;0.70;0.70;;;;;;;5.66;100.00;100276.13;5093803;28;20205;-71
2023/03/14 05:55:19;;;;;;;0.90;0.90;;;;;;;5.89;100.00;100277.00;5090701;28;20229;-72
2023/03/14 05:57:46;;;;;;;1.23;1.23;;;;;;;5.73;100.00;100264.38;5092609;28;20716;-73
2023/03/14 06:00:14;;;;;;;0.90;0.90;;;;;;;6.16;100.00;100267.72;5092357;28;20251;-74
2023/03/14 06:02:41;;;;;;;0.73;0.73;;;;;;;6.39;100.00;100266.81;5090084;28;20210;-68
2023/03/14 06:05:08;;;;;;;0.80;0.80;;;;;;;6.34;100.00;100273.50;5091689;28;20198;-73
2023/03/14 06:07:35;;;;;;;0.90;0.90;;;;;;;6.50;100.00;100272.31;5054096;28;20238;-78
2023/03/14 06:10:02;;;;;;;0.70;0.70;;;;;;;6.36;100.00;100277.00;5056645;28;20203;-70
2023/03/14 06:12:30;;;;;;;0.83;0.83;;;;;;;6.31;100.00;100273.38;5092334;28;20213;-70
2023/03/14 06:14:57;;;;;;;0.80;0.80;;;;;;;6.23;100.00;100274.81;5091838;28;20213;-71
2023/03/14 06:17:24;;;;;;;0.93;0.93;;;;;;;5.98;100.00;100251.63;5092026;28;20225;-70
2023/03/14 06:19:50;;;;;;;0.70;0.70;;;;;;;6.25;100.00;100254.28;5040303;28;20212;-71
2023/03/14 06:22:17;;;;;;;0.90;0.90;;;;;;;6.38;100.00;100253.88;5091861;28;20576;-71
2023/03/14 06:24:44;;;;;;;0.77;0.77;;;;;;;6.20;100.00;100223.25;5092257;28;20584;-69
2023/03/14 06:27:11;;;;;;;0.70;0.70;;;;;;;6.63;100.00;100281.34;5091700;28;20213;-70
2023/03/14 06:29:39;;;;;;;0.80;0.80;;;;;;;6.44;100.00;100265.28;5091049;28;20683;-73
2023/03/14 06:32:06;;;;;;;0.80;0.80;;;;;;;6.80;100.00;100277.63;5091767;28;20202;-69
2023/03/14 06:34:33;;;;;;;1.00;1.00;;;;;;;6.96;100.00;100287.59;5083401;28;20546;-70
2023/03/14 06:36:59;;;;;;;0.80;0.80;;;;;;;6.89;100.00;100268.50;5023861;28;20207;-70
2023/03/14 06:39:26;;;;;;;0.90;0.90;;;;;;;7.07;97.07;100280.22;5092091;28;20234;-70
2023/03/14 06:41:53;;;;;;;0.70;0.70;;;;;;;7.11;94.48;100289.78;5089927;28;20206;-70
2023/03/14 06:44:20;;;;;;;1.27;1.27;;;;;;;7.32;100.00;100282.72;5087718;28;20592;-69
2023/03/14 06:46:48;;;;;;;1.47;1.47;;;;;;;7.78;100.00;100259.19;5086054;28;20209;-70
2023/03/14 06:49:15;;;;;;;0.90;0.90;;;;;;;7.35;100.00;100242.44;5091814;28;20584;-70
2023/03/14 06:51:41;;;;;;;0.80;0.80;;;;;;;7.39;96.56;100243.41;5091960;28;20201;-70
2023/03/14 06:54:08;;;;;;;0.73;0.73;;;;;;;7.47;93.33;100258.28;5091612;28;20213;-71
2023/03/14 06:56:35;;;;;;;0.70;0.70;;;;;;;7.63;93.70;100259.66;5091973;28;20210;-71
2023/03/14 06:59:02;;;;;;;0.90;0.90;;;;;;;7.72;95.73;100257.31;5048960;28;1230073;-72
2023/03/14 07:01:32;;;;;;;0.80;0.80;;;;;;;7.67;91.94;100237.38;5092907;28;20202;-70
2023/03/14 07:04:00;;;;;;;0.90;0.90;;;;;;;7.76;91.43;100261.75;5057153;28;20289;-71
2023/03/14 07:06:29;;;;;;;0.70;0.70;;;;;;;7.74;100.00;100188.53;5092407;28;20657;-72
2023/03/14 07:08:56;;;;;;;0.83;0.83;;;;;;;7.83;92.92;100232.69;5092408;28;20205;-67
2023/03/14 07:11:24;;;;;;;0.70;0.70;;;;;;;7.94;90.21;100251.06;5092753;28;20189;-70
2023/03/14 07:13:51;;;;;;;0.77;0.77;;;;;;;7.89;89.16;100244.88;5092446;28;20586;-74
2023/03/14 07:16:18;;;;;;;0.90;0.90;;;;;;;7.91;86.65;100222.59;5092418;28;20194;-75
2023/03/14 07:18:44;;;;;;;0.90;0.90;;;;;;;8.24;89.98;100245.88;5092493;28;20225;-75
2023/03/14 07:21:13;;;;;;;0.80;0.80;;;;;;;8.56;100.00;100234.66;5092251;28;20633;-74
2023/03/14 07:23:40;;;;;;;0.80;0.80;;;;;;;8.59;87.92;100246.81;5085779;28;20199;-77
2023/03/14 07:26:07;;;;;;;0.90;0.90;;;;;;;8.51;84.39;100245.75;5086422;28;20206;-68
2023/03/14 07:28:34;;;;;;;0.80;0.80;;;;;;;8.61;82.70;100247.72;5038112;28;20543;-71
2023/03/14 07:31:01;;;;;;;0.70;0.70;;;;;;;8.71;78.35;100247.09;5091941;28;20647;-71
2023/03/14 07:33:27;;;;;;;0.70;0.70;;;;;;;8.85;76.75;100253.50;5040060;28;20220;-72
2023/03/14 07:35:54;;;;;;;0.88;0.88;;;;;;;8.89;76.49;100244.97;5083998;28;20280;-71
2023/03/14 07:38:22;;;;;;;0.70;0.70;;;;;;;8.94;75.14;100245.97;5085988;28;20230;-71
2023/03/14 07:40:49;;;;;;;0.80;0.80;;;;;;;9.00;74.57;100237.47;5078086;28;20209;-71
2023/03/14 07:43:16;;;;;;;0.77;0.77;;;;;;;9.04;74.44;100247.94;5092118;28;20218;-72
2023/03/14 07:45:47;;;;;;;0.80;0.80;;;;;;;9.32;77.04;100239.97;5091654;28;20201;-70
2023/03/14 07:48:13;;;;;;;0.70;0.70;;;;;;;9.33;71.20;100246.91;5088152;28;20202;-68
2023/03/14 07:50:40;;;;;;;0.63;0.63;;;;;;;9.48;69.83;100243.78;5091506;28;20199;-69
2023/03/14 07:53:07;;;;;;;0.70;0.70;;;;;;;8.77;66.63;100118.03;5091476;28;20205;-68
2023/03/14 07:55:35;;;;;;;0.70;0.70;;;;;;;9.78;67.56;100243.53;5091686;28;20202;-72
2023/03/14 07:58:02;;;;;;;0.70;0.70;;;;;;;9.79;64.86;100241.00;5091366;28;20245;-71
2023/03/14 08:00:29;;;;;;;0.80;0.80;;;;;;;9.89;64.55;100236.88;5091434;28;20225;-70
2023/03/14 08:02:56;;;;;;;0.70;0.70;;;;;;;9.89;66.32;100211.84;5091432;28;20209;-72
2023/03/14 08:05:22;;;;;;;0.77;0.77;;;;;;;10.08;67.18;100223.44;5091534;28;20214;-70
2023/03/14 08:07:49;;;;;;;1.00;1.00;;;;;;;9.91;61.52;100230.00;5091226;28;20198;-71
2023/03/14 08:10:21;;;;;;;0.70;0.70;;;;;;;9.77;62.52;100226.28;5091464;28;20210;-69
2023/03/14 08:12:50;;;;;;;0.70;0.70;;;;;;;9.89;62.87;100221.31;5091149;28;20232;-69
2023/03/14 08:15:17;;;;;;;0.80;0.80;;;;;;;9.84;64.14;100197.06;5091342;28;20205;-69
2023/03/14 08:17:43;;;;;;;0.77;0.77;;;;;;;10.13;64.98;100226.97;5082619;28;20297;-70
2023/03/14 08:20:12;;;;;;;0.70;0.70;;;;;;;10.27;63.33;100222.09;5091091;28;20202;-70
2023/03/14 08:22:39;;;;;;;0.80;0.80;;;;;;;10.19;61.59;100201.22;5091293;28;20239;-70
2023/03/14 08:25:07;;;;;;;0.70;0.70;;;;;;;10.42;64.21;100204.22;5090973;28;20217;-69
2023/03/14 08:27:34;;;;;;;0.70;0.70;;;;;;;10.56;61.96;100218.28;5039594;28;20553;-68
2023/03/14 08:30:02;;;;;;;0.80;0.80;;;;;;;10.60;59.92;100198.47;5090223;28;20206;-69
2023/03/14 08:32:29;;;;;;;0.60;0.60;;;;;;;10.68;57.56;100196.88;5091101;28;20622;-68
2023/03/14 08:34:56;;;;;;;0.70;0.70;;;;;;;10.89;58.19;100213.66;5091110;28;20198;-71
2023/03/14 08:37:24;;;;;;;0.70;0.70;;;;;;;10.97;58.53;100199.94;5071972;28;20206;-70
2023/03/14 08:39:51;;;;;;;0.70;0.70;;;;;;;10.79;57.13;100191.03;5090116;28;20217;-68
2023/03/14 08:42:18;;;;;;;0.77;0.77;;;;;;;10.59;57.84;100104.28;5089484;28;20198;-69
2023/03/14 08:44:45;;;;;;;0.70;0.70;;;;;;;10.86;55.94;100166.94;5090872;28;20229;-69
2023/03/14 08:47:13;;;;;;;0.70;0.70;;;;;;;11.29;58.47;100191.78;5090603;28;20259;-68
2023/03/14 08:49:40;;;;;;;0.60;0.60;;;;;;;11.16;54.88;100156.13;5087573;28;20210;-68
2023/03/14 08:52:07;;;;;;;0.60;0.60;;;;;;;11.43;54.98;100182.44;5085012;28;20210;-68
2023/03/14 08:54:34;;;;;;;0.70;0.70;;;;;;;11.28;55.20;100158.88;5090545;28;20590;-68
2023/03/14 08:57:01;;;;;;;0.70;0.70;;;;;;;11.59;55.86;100172.25;5078635;28;20195;-69
2023/03/14 08:59:28;;;;;;;0.60;0.60;;;;;;;11.51;54.12;100171.28;5071520;28;20241;-70
2023/03/14 09:01:55;;;;;;;0.90;0.90;;;;;;;11.32;54.12;100155.47;5082457;28;20198;-69
2023/03/14 09:04:23;;;;;;;0.70;0.70;;;;;;;11.52;54.15;100160.94;5087169;28;20218;-69
2023/03/14 09:06:50;;;;;;;0.70;0.70;;;;;;;11.61;54.83;100161.03;5087423;28;20209;-70
2023/03/14 09:09:17;;;;;;;0.60;0.60;;;;;;;11.53;54.52;100161.78;5081044;28;20206;-70
2023/03/14 09:11:43;;;;;;;0.63;0.63;;;;;;;11.56;58.21;100147.09;5078376;28;20249;-69
2023/03/14 09:14:10;;;;;;;0.80;0.80;;;;;;;11.77;55.41;100151.72;5033606;28;20205;-70
2023/03/14 09:16:37;;;;;;;0.70;0.70;;;;;;;11.94;54.84;100147.59;5040473;28;20206;-69
2023/03/14 09:19:04;;;;;;;0.60;0.60;;;;;;;11.95;53.58;100146.72;5080799;28;20229;-69
2023/03/14 09:21:32;;;;;;;0.90;0.90;;;;;;;11.90;52.98;100138.88;5028223;28;20211;-69
2023/03/14 09:23:59;;;;;;;0.80;0.80;;;;;;;11.71;53.20;100110.09;5081072;28;20199;-68
2023/03/14 09:26:25;;;;;;;0.60;0.60;;;;;;;11.89;52.85;100138.84;5090483;28;20202;-69
2023/03/14 09:28:52;;;;;;;0.60;0.60;;;;;;;11.92;53.04;100120.69;5090365;28;20202;-69
2023/03/14 09:31:19;;;;;;;0.60;0.60;;;;;;;11.99;53.88;100117.31;5088745;28;20207;-71
2023/03/14 09:33:46;;;;;;;0.60;0.60;;;;;;;12.10;54.29;100136.47;5085834;28;20225;-71
2023/03/14 09:36:13;;;;;;;0.85;0.85;;;;;;;12.21;54.33;100124.44;5080262;28;20199;-71
2023/03/14 09:38:41;;;;;;;0.80;0.80;;;;;;;12.41;53.90;100122.03;5084900;28;20231;-72
2023/03/14 09:41:16;;;;;;;0.60;0.60;;;;;;;12.35;54.17;100125.44;5087975;28;20681;-71
2023/03/14 09:43:46;;;;;;;0.60;0.60;;;;;;;12.28;53.35;100113.25;5086072;28;20217;-71
2023/03/14 09:46:14;;;;;;;0.68;0.68;;;;;;;12.26;52.77;100114.09;5085070;28;20217;-71
2023/03/14 09:48:42;;;;;;;0.60;0.60;;;;;;;12.07;51.69;100045.50;5090377;28;20194;-70
2023/03/14 09:51:15;;;;;;;0.60;0.60;;;;;;;12.49;50.87;100088.25;5091212;28;20205;-71
2023/03/14 09:53:46;;;;;;;0.77;0.77;;;;;;;12.58;48.81;100098.75;5088095;28;20252;-71
2023/03/14 09:56:17;;;;;;;0.60;0.60;;;;;;;12.71;48.43;100095.38;5093891;28;20198;-71
2023/03/14 09:58:49;;;;;;;0.70;0.70;;;;;;;12.83;48.04;100090.25;5085819;28;20245;-71
2023/03/14 10:01:21;;;;;;;0.60;0.60;;;;;;;12.87;47.28;100102.44;5086348;28;20210;-71
2023/03/14 10:03:48;;;;;;;0.68;0.68;;;;;;;12.66;46.59;100055.47;5093691;28;20210;-71
2023/03/14 10:06:16;;;;;;;0.60;0.60;;;;;;;12.93;46.31;100087.72;5079503;28;20205;-72
2023/03/14 10:08:45;;;;;;;0.55;0.55;;;;;;;13.05;46.58;100073.03;5093480;28;20206;-71
2023/03/14 10:11:15;;;;;;;1.55;1.55;;;;;;;13.05;45.63;100070.41;5093418;28;20702;-71
2023/03/14 10:13:49;;;;;;;0.63;0.63;;;;;;;13.26;44.52;100068.81;5093513;28;20610;-71
2023/03/14 10:16:16;;;;;;;0.55;0.55;;;;;;;13.23;44.97;100061.00;5093356;28;20217;-71
2023/03/14 10:18:46;;;;;;;0.70;0.70;;;;;;;13.29;45.70;100066.22;5093326;28;20257;-72
2023/03/14 10:21:22;;;;;;;0.60;0.60;;;;;;;13.48;45.59;100061.06;5093210;28;20202;-69
2023/03/14 10:23:50;;;;;;;0.60;0.60;;;;;;;13.37;43.58;100051.50;5093556;28;20206;-69
2023/03/14 10:26:18;;;;;;;0.50;0.50;;;;;;;13.54;44.24;100045.44;5087917;28;20599;-71
2023/03/14 10:28:46;;;;;;;0.60;0.60;;;;;;;13.69;43.78;100037.69;5084863;28;20198;-71
2023/03/14 10:31:14;;;;;;;0.70;0.70;;;;;;;13.59;44.68;100041.13;5093228;28;20620;-71
2023/03/14 10:33:41;;;;;;;0.60;0.60;;;;;;;13.81;45.75;100022.03;5088424;28;20210;-73
2023/03/14 10:36:20;;;;;;;0.60;0.60;;;;;;;13.72;45.87;100012.50;5028152;28;20199;-73
2023/03/14 10:38:46;;;;;;;0.70;0.70;;;;;;;13.82;45.90;99987.28;5090073;28;20221;-73
2023/03/14 10:41:24;;;;;;;0.90;0.90;;;;;;;13.93;46.42;99975.13;5092831;28;20198;-75
2023/03/14 10:43:54;;;;;;;0.60;0.60;;;;;;;14.00;45.99;99996.84;5057445;28;20240;-72
2023/03/14 10:46:22;;;;;;;0.60;0.60;;;;;;;13.97;44.27;99965.59;5092789;28;20194;-73
2023/03/14 10:48:49;;;;;;;0.60;0.60;;;;;;;14.30;45.84;99969.00;5092779;28;20198;-71
2023/03/14 10:51:20;;;;;;;0.60;0.60;;;;;;;14.44;44.03;99965.53;5040586;28;20210;-68
2023/03/14 10:53:50;;;;;;;0.60;0.60;;;;;;;14.52;44.85;99948.13;5092600;28;20206;-70
2023/03/14 10:56:20;;;;;;;0.65;0.65;;;;;;;14.44;43.42;99944.69;5092675;28;20251;-70
2023/03/14 10:58:49;;;;;;;0.70;0.70;;;;;;;14.55;44.12;99935.06;5073418;28;20663;-69
2023/03/14 11:01:37;;;;;;;0.65;0.65;;;;;;;14.65;44.05;99928.94;5092436;28;20202;-70
2023/03/14 11:04:15;;;;;;;0.80;0.80;;;;;;;14.58;43.38;99920.28;4992394;28;20207;-69
2023/03/14 11:06:48;;;;;;;1.65;1.65;;;;;;;14.42;41.92;99892.50;4991242;28;20617;-69
2023/03/14 11:09:24;;;;;;;0.60;0.60;;;;;;;14.48;40.12;99920.31;4990896;28;20201;-69
2023/03/14 11:11:52;;;;;;;0.60;0.60;;;;;;;14.60;39.90;99899.38;4990892;28;20197;-69
2023/03/14 11:14:29;;;;;;;0.60;0.60;;;;;;;14.84;37.62;99896.66;4991004;28;20209;-69
2023/03/14 11:17:01;;;;;;;0.60;0.60;;;;;;;15.07;38.13;99901.75;4990778;28;20207;-69
2023/03/14 11:19:50;;;;;;;0.90;0.90;;;;;;;15.19;40.39;99897.34;4990786;28;20864;-70
2023/03/14 11:22:25;;;;;;;0.50;0.50;;;;;;;15.28;38.76;99884.19;4942413;28;20209;-72
2023/03/14 11:25:10;;;;;;;0.60;0.60;;;;;;;15.14;39.04;99844.25;4991004;28;20208;-73
2023/03/14 11:27:43;;;;;;;0.60;0.60;;;;;;;15.40;38.88;99867.56;4990700;28;20224;-73
2023/03/14 11:30:19;;;;;;;0.80;0.80;;;;;;;15.44;39.55;99860.56;4990506;28;20229;-73
2023/03/14 11:32:51;;;;;;;0.70;0.70;;;;;;;15.45;39.19;99859.66;4990573;28;20205;-73
2023/03/14 11:35:25;;;;;;;0.70;0.70;;;;;;;15.28;38.17;99847.63;4990533;28;20194;-73